createdAt,value
2018-09-18T00:02:21.157Z,100874.99
2018-09-18T00:04:51.259Z,100877.27
2018-09-18T00:07:21.352Z,100870.25
2018-09-18T00:09:51.481Z,100882.01
2018-09-18T00:12:21.624Z,100875.45
2018-09-18T00:14:51.658Z,100872.25
2018-09-18T00:17:21.992Z,100864.70
2018-09-18T00:19:52.035Z,100869.77
2018-09-18T00:22:22.160Z,100864.40
2018-09-18T00:24:52.189Z,100864.52
2018-09-18T00:27:22.383Z,100861.87
2018-09-18T00:29:52.456Z,100862.23
2018-09-18T00:32:22.548Z,100859.56
2018-09-18T00:34:52.610Z,100860.27
2018-09-18T00:37:23.042Z,100853.59
2018-09-18T00:39:53.089Z,100846.84
2018-09-18T00:42:23.127Z,100846.73
2018-09-18T00:44:53.196Z,100846.43
2018-09-18T00:47:23.269Z,100844.51
2018-09-18T00:49:53.429Z,100844.58
2018-09-18T00:52:23.707Z,100836.37
2018-09-18T00:54:53.749Z,100834.52
2018-09-18T00:57:23.869Z,100839.45
2018-09-18T00:59:53.969Z,100836.33
2018-09-18T01:02:24.109Z,100829.07
2018-09-18T01:04:54.244Z,100832.09
2018-09-18T01:07:24.431Z,100826.97
2018-09-18T01:09:54.534Z,100823.11
2018-09-18T01:12:24.689Z,100827.94
2018-09-18T01:14:54.814Z,100823.06
2018-09-18T01:17:24.877Z,100821.97
2018-09-18T01:19:54.931Z,100822.22
2018-09-18T01:22:25.051Z,100821.55
2018-09-18T01:24:55.367Z,100813.55
2018-09-18T01:27:25.424Z,100813.55
2018-09-18T01:29:55.497Z,100814.47
2018-09-18T01:32:25.583Z,100817.84
2018-09-18T01:34:55.684Z,100813.14
2018-09-18T01:37:26.068Z,100811.99
2018-09-18T01:39:56.095Z,100809.75
2018-09-18T01:42:26.190Z,100808.49
2018-09-18T01:44:56.307Z,100810.55
2018-09-18T01:47:26.385Z,100808.07
2018-09-18T01:49:56.523Z,100807.77
2018-09-18T01:52:26.582Z,100806.59
2018-09-18T01:54:56.601Z,100798.89
2018-09-18T01:57:26.750Z,100807.86
2018-09-18T01:59:56.852Z,100798.76
2018-09-18T02:02:26.962Z,100802.02
2018-09-18T02:04:57.032Z,100793.86
2018-09-18T02:07:27.144Z,100796.16
2018-09-18T02:09:57.258Z,100800.98
2018-09-18T02:12:27.349Z,100799.91
2018-09-18T02:14:57.425Z,100795.33
2018-09-18T02:17:27.601Z,100794.11
2018-09-18T02:19:57.631Z,100786.95
2018-09-18T02:22:27.766Z,100788.90
2018-09-18T02:24:57.935Z,100785.09
2018-09-18T02:27:28.030Z,100785.20
2018-09-18T02:29:58.087Z,100783.27
2018-09-18T02:32:28.177Z,100778.52
2018-09-18T02:34:58.176Z,100773.59
2018-09-18T02:37:28.237Z,100779.30
2018-09-18T02:39:58.327Z,100774.14
2018-09-18T02:42:28.535Z,100775.27
2018-09-18T02:44:58.615Z,100774.48
2018-09-18T02:47:28.748Z,100771.06
2018-09-18T02:49:58.807Z,100769.73
2018-09-18T02:52:28.897Z,100770.52
2018-09-18T02:54:58.955Z,100772.69
2018-09-18T02:57:28.978Z,100774.38
2018-09-18T02:59:59.045Z,100771.66
2018-09-18T03:02:29.166Z,100773.53
2018-09-18T03:04:59.336Z,100769.80
2018-09-18T03:07:29.405Z,100777.34
2018-09-18T03:09:59.513Z,100767.28
2018-09-18T03:12:29.578Z,100769.25
2018-09-18T03:14:59.674Z,100764.56
2018-09-18T03:17:29.863Z,100764.73
2018-09-18T03:19:59.939Z,100763.43
2018-09-18T03:22:30.020Z,100761.56
2018-09-18T03:25:00.145Z,100754.27
2018-09-18T03:27:30.309Z,100754.88
2018-09-18T03:30:00.321Z,100755.23
2018-09-18T03:32:30.396Z,100747.59
2018-09-18T03:35:00.433Z,100752.64
2018-09-18T03:37:30.491Z,100748.47
2018-09-18T03:40:00.609Z,100752.34
2018-09-18T03:42:30.703Z,100745.91
2018-09-18T03:45:00.806Z,100739.82
2018-09-18T03:47:30.890Z,100738.62
2018-09-18T03:50:01.020Z,100736.04
2018-09-18T03:52:31.097Z,100732.23
2018-09-18T03:55:01.185Z,100733.39
2018-09-18T03:57:31.263Z,100730.20
2018-09-18T04:00:01.310Z,100734.27
2018-09-18T04:02:31.444Z,100732.95
2018-09-18T04:05:01.551Z,100734.82
2018-09-18T04:07:31.697Z,100729.72
2018-09-18T04:10:01.762Z,100727.90
2018-09-18T04:12:31.905Z,100726.03
2018-09-18T04:15:02.134Z,100721.68
2018-09-18T04:17:32.366Z,100721.03
2018-09-18T04:20:02.619Z,100714.16
2018-09-18T04:22:32.766Z,100713.93
2018-09-18T04:25:02.850Z,100718.75
2018-09-18T04:27:32.925Z,100715.25
2018-09-18T04:30:03.050Z,100709.48
2018-09-18T04:32:33.143Z,100714.11
2018-09-18T04:35:03.195Z,100701.03
2018-09-18T04:37:33.380Z,100705.43
2018-09-18T04:40:03.506Z,100704.83
2018-09-18T04:42:33.557Z,100705.38
2018-09-18T04:45:03.729Z,100699.78
2018-09-18T04:47:33.830Z,100697.41
2018-09-18T04:50:03.972Z,100692.95
2018-09-18T04:52:34.063Z,100690.31
2018-09-18T04:55:04.225Z,100693.84
2018-09-18T04:57:34.350Z,100694.33
2018-09-18T05:00:04.498Z,100691.67
2018-09-18T05:02:34.612Z,100685.72
2018-09-18T05:05:04.787Z,100695.83
2018-09-18T05:07:34.940Z,100690.68
2018-09-18T05:10:05.072Z,100689.95
2018-09-18T05:12:35.204Z,100693.88
2018-09-18T05:15:05.321Z,100691.08
2018-09-18T05:17:35.402Z,100692.05
2018-09-18T05:20:05.658Z,100692.05
2018-09-18T05:22:35.781Z,100693.30
2018-09-18T05:25:06.177Z,100690.17
2018-09-18T05:27:36.277Z,100694.80
2018-09-18T05:30:06.823Z,100695.35
2018-09-18T05:32:36.945Z,100697.34
2018-09-18T05:35:07.019Z,100696.06
2018-09-18T05:37:37.166Z,100694.73
2018-09-18T05:40:07.696Z,100696.22
2018-09-18T05:42:37.749Z,100691.64
2018-09-18T05:45:08.100Z,100694.38
2018-09-18T05:47:38.183Z,100691.97
2018-09-18T05:50:08.291Z,100690.25
2018-09-18T05:52:38.368Z,100696.70
2018-09-18T05:55:08.496Z,100693.32
2018-09-18T05:57:38.595Z,100695.02
2018-09-18T06:00:08.750Z,100696.02
2018-09-18T06:02:38.893Z,100688.24
2018-09-18T06:05:09.154Z,100697.94
2018-09-18T06:07:39.640Z,100689.02
2018-09-18T06:10:09.824Z,100695.30
2018-09-18T06:12:39.932Z,100689.50
2018-09-18T06:15:10.025Z,100690.45
2018-09-18T06:17:40.122Z,100687.50
2018-09-18T06:20:10.220Z,100681.35
2018-09-18T06:22:40.401Z,100692.91
2018-09-18T06:25:10.544Z,100689.71
2018-09-18T06:27:40.653Z,100688.09
2018-09-18T06:30:10.793Z,100679.75
2018-09-18T06:32:40.908Z,100687.87
2018-09-18T06:35:11.093Z,100687.98
2018-09-18T06:37:41.428Z,100691.41
2018-09-18T06:40:11.647Z,100688.00
2018-09-18T06:42:41.720Z,100682.62
2018-09-18T06:45:11.948Z,100680.10
2018-09-18T06:47:42.035Z,100678.41
2018-09-18T06:50:12.089Z,100671.29
2018-09-18T06:52:42.158Z,100669.93
2018-09-18T06:55:12.273Z,100665.92
2018-09-18T06:57:42.422Z,100657.01
2018-09-18T07:00:12.622Z,100659.70
2018-09-18T07:02:42.630Z,100656.33
2018-09-18T07:05:12.720Z,100652.66
2018-09-18T07:07:42.916Z,100645.45
2018-09-18T07:10:13.062Z,100650.64
2018-09-18T07:12:43.160Z,100649.88
2018-09-18T07:15:13.229Z,100646.78
2018-09-18T07:17:43.358Z,100647.34
2018-09-18T07:20:13.527Z,100646.16
2018-09-18T07:22:43.598Z,100645.64
2018-09-18T07:25:13.655Z,100640.62
2018-09-18T07:27:43.755Z,100643.48
2018-09-18T07:30:13.813Z,100644.89
2018-09-18T07:32:43.894Z,100640.02
2018-09-18T07:35:13.934Z,100646.23
2018-09-18T07:37:44.001Z,100638.61
2018-09-18T07:40:14.093Z,100638.11
2018-09-18T07:42:44.175Z,100634.74
2018-09-18T07:45:14.228Z,100630.92
2018-09-18T07:47:44.311Z,100637.20
2018-09-18T07:50:14.739Z,100628.31
2018-09-18T07:52:44.829Z,100632.73
2018-09-18T07:55:14.894Z,100632.27
2018-09-18T07:57:45.056Z,100632.13
2018-09-18T08:00:15.097Z,100624.98
2018-09-18T08:02:45.175Z,100625.66
2018-09-18T08:05:15.237Z,100622.11
2018-09-18T08:07:45.329Z,100622.86
2018-09-18T08:10:15.473Z,100623.05
2018-09-18T08:12:45.602Z,100620.44
2018-09-18T08:15:15.647Z,100618.29
2018-09-18T08:17:45.757Z,100624.34
2018-09-18T08:20:15.905Z,100621.75
2018-09-18T08:22:46.065Z,100617.07
2018-09-18T08:25:16.125Z,100618.17
2018-09-18T08:27:46.208Z,100615.38
2018-09-18T08:30:16.267Z,100618.93
2018-09-18T08:32:46.400Z,100625.31
2018-09-18T08:35:16.493Z,100626.98
2018-09-18T08:37:46.604Z,100623.05
2018-09-18T08:40:16.674Z,100628.13
2018-09-18T08:42:46.795Z,100631.20
2018-09-18T08:45:16.884Z,100630.06
2018-09-18T08:47:47.108Z,100635.83
2018-09-18T08:50:17.138Z,100629.64
2018-09-18T08:52:47.192Z,100631.56
2018-09-18T08:55:17.307Z,100635.05
2018-09-18T08:57:47.427Z,100632.73
2018-09-18T09:00:17.545Z,100627.97
2018-09-18T09:02:47.614Z,100634.13
2018-09-18T09:05:17.781Z,100636.75
2018-09-18T09:07:47.998Z,100634.67
2018-09-18T09:10:18.112Z,100640.77
2018-09-18T09:12:48.255Z,100642.20
2018-09-18T09:15:18.392Z,100640.47
2018-09-18T09:17:48.515Z,100635.80
2018-09-18T09:20:18.626Z,100639.38
2018-09-18T09:22:48.852Z,100630.90
2018-09-18T09:25:18.813Z,100633.16
2018-09-18T09:27:48.964Z,100627.06
2018-09-18T09:30:18.995Z,100626.89
2018-09-18T09:32:49.093Z,100625.41
2018-09-18T09:35:19.181Z,100634.93
2018-09-18T09:37:49.245Z,100640.05
2018-09-18T09:40:19.262Z,100639.71
2018-09-18T09:42:49.343Z,100644.51
2018-09-18T09:45:19.425Z,100646.42
2018-09-18T09:47:49.559Z,100639.06
2018-09-18T09:50:19.609Z,100640.86
2018-09-18T09:52:49.808Z,100628.69
2018-09-18T09:55:19.819Z,100641.61
2018-09-18T09:57:49.902Z,100633.52
2018-09-18T10:00:25.048Z,100640.91
2018-09-18T10:02:55.165Z,100638.32
2018-09-18T10:05:25.195Z,100648.07
2018-09-18T10:07:55.291Z,100642.41
2018-09-18T10:10:25.380Z,100645.70
2018-09-18T10:12:55.481Z,100649.65
2018-09-18T10:15:25.585Z,100643.56
2018-09-18T10:17:55.796Z,100637.91
2018-09-18T10:20:25.779Z,100646.14
2018-09-18T10:22:55.865Z,100641.27
2018-09-18T10:25:25.939Z,100637.91
2018-09-18T10:27:56.025Z,100625.69
2018-09-18T10:30:26.099Z,100635.62
2018-09-18T10:32:56.279Z,100639.18
2018-09-18T10:35:26.451Z,100632.26
2018-09-18T10:37:56.601Z,100630.66
2018-09-18T10:40:26.683Z,100639.47
2018-09-18T10:42:56.870Z,100634.00
2018-09-18T10:45:26.891Z,100633.63
2018-09-18T10:47:57.011Z,100634.81
2018-09-18T10:50:27.090Z,100628.34
2018-09-18T10:52:57.292Z,100624.73
2018-09-18T10:55:30.666Z,100621.03
2018-09-18T10:58:02.017Z,100616.79
2018-09-18T11:00:33.871Z,100612.61
2018-09-18T11:03:05.661Z,100612.18
2018-09-18T11:05:39.199Z,100604.97
2018-09-18T11:08:11.325Z,100604.53
2018-09-18T11:10:42.856Z,100607.47
2018-09-18T11:13:13.046Z,100610.55
2018-09-18T11:15:43.514Z,100599.67
2018-09-18T11:18:13.646Z,100604.02
2018-09-18T11:20:43.869Z,100596.70
2018-09-18T11:23:13.945Z,100595.74
2018-09-18T11:25:44.007Z,100580.94
2018-09-18T11:28:14.588Z,100587.84
2018-09-18T11:30:44.671Z,100591.22
2018-09-18T11:33:15.368Z,100597.17
2018-09-18T11:35:45.492Z,100596.55
2018-09-18T11:38:15.603Z,100587.55
2018-09-18T11:40:45.677Z,100593.77
2018-09-18T11:43:15.810Z,100591.82
2018-09-18T11:45:46.029Z,100586.51
2018-09-18T11:48:15.974Z,100583.37
2018-09-18T11:50:46.117Z,100584.33
2018-09-18T11:53:16.229Z,100583.47
2018-09-18T11:55:46.320Z,100586.09
2018-09-18T11:58:16.549Z,100581.20
2018-09-18T12:00:46.739Z,100576.42
2018-09-18T12:03:18.254Z,100565.39
2018-09-18T12:05:48.394Z,100563.50
2018-09-18T12:08:18.490Z,100566.67
2018-09-18T12:10:48.593Z,100560.38
2018-09-18T12:13:18.711Z,100564.67
2018-09-18T12:15:48.725Z,100570.83
2018-09-18T12:18:18.802Z,100562.20
2018-09-18T12:20:48.945Z,100556.06
2018-09-18T12:23:19.043Z,100559.83
2018-09-18T12:25:49.104Z,100562.79
2018-09-18T12:28:19.222Z,100560.72
2018-09-18T12:30:49.310Z,100560.59
2018-09-18T12:33:19.453Z,100555.69
2018-09-18T12:35:49.617Z,100557.89
2018-09-18T12:38:19.658Z,100559.86
2018-09-18T12:40:49.744Z,100554.34
2018-09-18T12:43:19.862Z,100562.98
2018-09-18T12:45:50.012Z,100553.53
2018-09-18T12:48:20.128Z,100556.02
2018-09-18T12:50:50.199Z,100559.61
2018-09-18T12:53:20.316Z,100551.64
2018-09-18T12:55:50.372Z,100551.61
2018-09-18T12:58:20.518Z,100554.67
2018-09-18T13:00:50.581Z,100555.70
2018-09-18T13:03:20.683Z,100552.90
2018-09-18T13:05:50.906Z,100549.53
2018-09-18T13:08:21.024Z,100545.80
2018-09-18T13:10:51.237Z,100545.30
2018-09-18T13:13:21.327Z,100547.83
2018-09-18T13:15:51.570Z,100546.55
2018-09-18T13:18:21.706Z,100545.34
2018-09-18T13:20:51.750Z,100546.70
2018-09-18T13:23:21.897Z,100549.45
2018-09-18T13:25:51.996Z,100537.96
2018-09-18T13:28:22.580Z,100542.72
2018-09-18T13:30:52.644Z,100540.36
2018-09-18T13:33:22.728Z,100541.64
2018-09-18T13:35:52.842Z,100543.26
2018-09-18T13:38:24.146Z,100546.56
2018-09-18T13:40:54.312Z,100552.39
2018-09-18T13:43:24.466Z,100549.59
2018-09-18T13:45:54.735Z,100540.81
2018-09-18T13:48:24.855Z,100549.56
2018-09-18T13:50:54.963Z,100550.43
2018-09-18T13:53:25.171Z,100557.34
2018-09-18T13:55:55.298Z,100552.98
2018-09-18T13:58:25.428Z,100548.50
2018-09-18T14:00:55.844Z,100550.36
2018-09-18T14:03:25.960Z,100553.20
2018-09-18T14:05:56.070Z,100552.37
2018-09-18T14:08:26.183Z,100548.21
2018-09-18T14:10:56.255Z,100549.88
2018-09-18T14:13:26.391Z,100555.51
2018-09-18T14:15:56.469Z,100553.66
2018-09-18T14:18:26.627Z,100547.94
2018-09-18T14:20:56.690Z,100549.23
2018-09-18T14:23:26.800Z,100554.98
2018-09-18T14:25:56.908Z,100556.23
2018-09-18T14:28:27.089Z,100561.36
2018-09-18T14:30:57.231Z,100564.98
2018-09-18T14:33:27.398Z,100563.28
2018-09-18T14:35:57.657Z,100563.14
2018-09-18T14:38:27.852Z,100558.64
2018-09-18T14:40:58.019Z,100560.72
2018-09-18T14:43:28.188Z,100556.59
2018-09-18T14:45:59.601Z,100567.47
2018-09-18T14:48:29.740Z,100568.42
2018-09-18T14:51:00.034Z,100566.34
2018-09-18T14:53:30.240Z,100574.86
2018-09-18T14:56:00.253Z,100573.28
2018-09-18T14:58:30.455Z,100575.92
2018-09-18T15:01:00.807Z,100567.76
2018-09-18T15:03:30.968Z,100565.41
2018-09-18T15:06:01.142Z,100576.30
2018-09-18T15:08:31.307Z,100582.20
2018-09-18T15:11:01.454Z,100584.55
2018-09-18T15:13:31.633Z,100591.69
2018-09-18T15:16:01.816Z,100596.34
2018-09-18T15:18:31.980Z,100593.53
2018-09-18T15:21:02.095Z,100599.20
2018-09-18T15:23:32.143Z,100595.27
2018-09-18T15:26:02.361Z,100606.02
2018-09-18T15:28:32.496Z,100599.58
2018-09-18T15:31:02.633Z,100603.27
2018-09-18T15:33:33.003Z,100604.74
2018-09-18T15:36:03.116Z,100605.04
2018-09-18T15:38:33.227Z,100597.25
2018-09-18T15:41:03.357Z,100601.00
2018-09-18T15:43:33.460Z,100604.15
2018-09-18T15:46:03.581Z,100603.00
2018-09-18T15:48:33.758Z,100601.76
2018-09-18T15:51:03.877Z,100600.70
2018-09-18T15:53:34.031Z,100612.09
2018-09-18T15:56:04.127Z,100606.23
2018-09-18T15:58:34.208Z,100607.39
2018-09-18T16:01:04.308Z,100608.39
2018-09-18T16:03:34.394Z,100613.24
2018-09-18T16:06:04.472Z,100610.27
2018-09-18T16:08:34.600Z,100617.91
2018-09-18T16:11:04.866Z,100615.82
2018-09-18T16:13:34.943Z,100618.16
2018-09-18T16:16:05.068Z,100623.73
2018-09-18T16:18:35.244Z,100623.59
2018-09-18T16:21:05.377Z,100627.31
2018-09-18T16:23:35.489Z,100624.38
2018-09-18T16:26:05.622Z,100626.56
2018-09-18T16:28:35.669Z,100625.73
2018-09-18T16:31:05.756Z,100627.81
2018-09-18T16:33:35.850Z,100633.10
2018-09-18T16:36:06.035Z,100627.61
2018-09-18T16:38:36.797Z,100633.61
2018-09-18T16:41:06.994Z,100635.20
2018-09-18T16:43:37.071Z,100643.08
2018-09-18T16:46:07.180Z,100646.59
2018-09-18T16:48:37.334Z,100644.72
2018-09-18T16:51:07.415Z,100649.83
2018-09-18T16:53:37.532Z,100651.96
2018-09-18T16:56:07.601Z,100644.28
2018-09-18T16:58:37.759Z,100656.86
2018-09-18T17:01:07.926Z,100664.20
2018-09-18T17:03:38.030Z,100669.12
2018-09-18T17:06:08.382Z,100668.55
2018-09-18T17:08:38.519Z,100674.83
2018-09-18T17:11:08.633Z,100671.35
2018-09-18T17:13:38.760Z,100674.70
2018-09-18T17:16:08.844Z,100683.17
2018-09-18T17:18:39.001Z,100682.52
2018-09-18T17:21:09.048Z,100696.70
2018-09-18T17:23:39.253Z,100698.04
2018-09-18T17:26:09.367Z,100709.98
2018-09-18T17:28:40.081Z,100717.38
2018-09-18T17:31:10.118Z,100719.58
2018-09-18T17:33:42.948Z,100719.58
2018-09-18T17:36:20.867Z,100724.78
2018-09-18T17:38:57.793Z,100733.55
2018-09-18T17:41:34.148Z,100738.39
2018-09-18T17:44:10.889Z,100746.44
2018-09-18T17:46:41.245Z,100750.46
2018-09-18T17:49:11.337Z,100750.37
2018-09-18T17:51:41.557Z,100763.09
2018-09-18T17:54:11.729Z,100762.87
2018-09-18T17:56:41.825Z,100769.80
2018-09-18T17:59:11.933Z,100770.42
2018-09-18T18:01:42.346Z,100784.88
2018-09-18T18:04:12.549Z,100793.35
2018-09-18T18:06:42.660Z,100804.57
2018-09-18T18:09:13.451Z,100814.02
2018-09-18T18:11:43.604Z,100812.86
2018-09-18T18:14:14.225Z,100821.30
2018-09-18T18:16:44.336Z,100819.37
2018-09-18T18:19:14.493Z,100829.61
2018-09-18T18:21:44.597Z,100837.13
2018-09-18T18:24:15.095Z,100840.55
2018-09-18T18:26:45.272Z,100848.13
2018-09-18T18:29:15.414Z,100850.58
2018-09-18T18:31:45.531Z,100853.98
2018-09-18T18:34:15.678Z,100858.79
2018-09-18T18:36:45.830Z,100866.43
2018-09-18T18:39:15.982Z,100870.84
2018-09-18T18:41:46.233Z,100878.67
2018-09-18T18:44:18.042Z,100877.86
2018-09-18T18:46:50.109Z,100880.87
2018-09-18T18:49:21.773Z,100889.66
2018-09-18T18:51:52.079Z,100892.45
2018-09-18T18:54:23.813Z,100904.23
2018-09-18T18:56:54.295Z,100907.63
2018-09-18T18:59:24.380Z,100911.57
2018-09-18T19:01:54.503Z,100912.27
2018-09-18T19:04:24.603Z,100912.69
2018-09-18T19:06:54.829Z,100922.09
2018-09-18T19:09:24.942Z,100922.70
2018-09-18T19:11:55.069Z,100914.55
2018-09-18T19:14:25.264Z,100922.14
2018-09-18T19:16:55.498Z,100922.02
2018-09-18T19:19:25.650Z,100927.16
2018-09-18T19:21:55.761Z,100933.78
2018-09-18T19:24:25.908Z,100928.59
2018-09-18T19:26:56.007Z,100935.02
2018-09-18T19:29:26.104Z,100934.00
2018-09-18T19:31:56.246Z,100944.13
2018-09-18T19:34:26.356Z,100944.55
2018-09-18T19:36:56.437Z,100948.76
2018-09-18T19:39:26.499Z,100946.98
2018-09-18T19:41:56.592Z,100955.29
2018-09-18T19:44:26.744Z,100955.56
2018-09-18T19:46:56.790Z,100962.17
2018-09-18T19:49:26.866Z,100959.53
2018-09-18T19:51:56.944Z,100961.22
2018-09-18T19:54:27.088Z,100960.13
2018-09-18T19:56:57.313Z,100964.98
2018-09-18T19:59:27.375Z,100965.97
2018-09-18T20:01:57.477Z,100969.51
2018-09-18T20:04:27.909Z,100973.05
2018-09-18T20:06:58.048Z,100976.07
2018-09-18T20:09:28.257Z,100977.28
2018-09-18T20:12:01.378Z,100975.00
2018-09-18T20:14:31.511Z,100976.80
2018-09-18T20:17:01.614Z,100981.56
2018-09-18T20:19:31.758Z,100988.00
2018-09-18T20:22:01.861Z,100988.47
2018-09-18T20:24:32.044Z,100990.80
2018-09-18T20:27:02.101Z,100993.59
2018-09-18T20:29:32.189Z,100991.27
2018-09-18T20:32:02.343Z,100995.14
2018-09-18T20:34:32.474Z,100990.77
2018-09-18T20:37:02.509Z,100995.14
2018-09-18T20:39:32.634Z,100993.05
2018-09-18T20:42:02.770Z,100993.75
2018-09-18T20:44:32.926Z,100996.98
2018-09-18T20:47:03.031Z,100997.58
2018-09-18T20:49:33.168Z,100997.67
2018-09-18T20:52:03.279Z,100999.00
2018-09-18T20:54:33.413Z,101004.09
2018-09-18T20:57:03.473Z,100997.59
2018-09-18T20:59:33.604Z,101001.94
2018-09-18T21:02:03.707Z,101009.45
2018-09-18T21:04:33.820Z,101010.88
2018-09-18T21:07:03.974Z,101008.08
2018-09-18T21:09:34.103Z,101013.63
2018-09-18T21:12:04.198Z,101020.97
2018-09-18T21:14:34.306Z,101023.56
2018-09-18T21:17:04.417Z,101038.66
2018-09-18T21:19:34.515Z,101033.03
2018-09-18T21:22:04.739Z,101034.81
2018-09-18T21:24:34.837Z,101031.95
2018-09-18T21:27:04.931Z,101034.36
2018-09-18T21:29:35.043Z,101041.91
2018-09-18T21:32:05.115Z,101047.10
2018-09-18T21:34:35.227Z,101041.05
2018-09-18T21:37:05.338Z,101043.55
2018-09-18T21:39:35.520Z,101046.06
2018-09-18T21:42:05.617Z,101049.33
2018-09-18T21:44:35.727Z,101042.88
2018-09-18T21:47:05.802Z,101050.30
2018-09-18T21:49:35.893Z,101055.61
2018-09-18T21:52:06.006Z,101057.86
2018-09-18T21:54:36.118Z,101057.30
2018-09-18T21:57:06.258Z,101051.58
2018-09-18T21:59:36.387Z,101054.15
2018-09-18T22:02:06.447Z,101058.61
2018-09-18T22:04:36.562Z,101066.72
2018-09-18T22:07:06.773Z,101075.61
2018-09-18T22:09:36.875Z,101071.69
2018-09-18T22:12:06.982Z,101073.67
2018-09-18T22:14:37.155Z,101076.75
2018-09-18T22:17:07.302Z,101078.36
2018-09-18T22:19:37.357Z,101081.92
2018-09-18T22:22:07.502Z,101088.86
2018-09-18T22:24:37.679Z,101093.88
2018-09-18T22:27:07.726Z,101093.52
2018-09-18T22:29:37.852Z,101092.27
2018-09-18T22:32:08.083Z,101097.03
2018-09-18T22:34:38.202Z,101098.06
2018-09-18T22:37:08.416Z,101101.80
2018-09-18T22:39:38.561Z,101106.77
2018-09-18T22:42:09.470Z,101108.14
2018-09-18T22:44:39.666Z,101116.45
2018-09-18T22:47:09.694Z,101109.91
2018-09-18T22:49:39.847Z,101110.84
2018-09-18T22:52:09.870Z,101116.81
2018-09-18T22:54:40.231Z,101118.33
2018-09-18T22:57:10.412Z,101109.11
2018-09-18T22:59:40.539Z,101122.38
2018-09-18T23:02:10.725Z,101122.39
2018-09-18T23:04:40.849Z,101131.03
2018-09-18T23:07:10.943Z,101131.88
2018-09-18T23:09:41.101Z,101127.71
2018-09-18T23:12:11.239Z,101128.26
2018-09-18T23:14:41.459Z,101137.59
2018-09-18T23:17:11.494Z,101133.20
2018-09-18T23:19:41.654Z,101136.71
2018-09-18T23:22:11.761Z,101133.33
2018-09-18T23:24:42.774Z,101138.30
2018-09-18T23:27:12.832Z,101131.30
2018-09-18T23:29:42.910Z,101134.78
2018-09-18T23:32:12.968Z,101138.72
2018-09-18T23:34:43.063Z,101131.91
2018-09-18T23:37:13.140Z,101134.05
2018-09-18T23:39:43.276Z,101137.27
2018-09-18T23:42:13.430Z,101138.02
2018-09-18T23:44:43.506Z,101138.33
2018-09-18T23:47:13.694Z,101140.82
2018-09-18T23:49:43.790Z,101132.86
2018-09-18T23:52:13.872Z,101142.42
2018-09-18T23:54:43.944Z,101140.55
2018-09-18T23:57:14.056Z,101139.05
2018-09-18T23:59:44.232Z,101140.19
